»·PEaware :: FLA91 KSEZ-KMRY

FLA91 :: KSEZ-KMRY

FLIGHT INFORMATION

Flight Status: Arrived
Operator: Unknown
More flights by this operator :: More flights under this callsign
Pilot: Anonymous 36068 (36068)
Aircraft: BEECH AIRCRAFT PREMIER
(PRM1)
More flights by this aircraft type
Origin: KSEZ Sedona
United States
Destination: KMRY Monterey Peninsula
United States
More flights between these airports :: More routes between these airports
Route: DRK J6 AVE V248 PRB V25 SNS
File this flight plan on PilotEdge
Remarks:
Altitude:
(Current/Filed)
32,000ft
Speed:
(Current/Filed)
400kts
Departed: 13-Sep-21 07:02 AM
Arrived: 13-Sep-21 08:42 AM
Distance/Time
Traveled:
501nm/1:40
Distance/Time
To Go:
Arrived

Flight Plot

Page will automatically refresh every two minutes.

Flight plan parsing failed; only flown route is shown


Map Options




Map Legend


Flown Route
Filed Route
Departure Airport
Arrival Airport
Navaid (VOR, NDB)
Fix

Horizontal Profiles

Position Reports

Time Latitude Longitude Heading Altitude Ground
Speed
13-Sep-21 07:00 34.793258 -111.879321 285 13640ft 254kts
13-Sep-21 07:01 34.808306 -111.965907 260 15801ft 273kts
13-Sep-21 07:02 34.788471 -112.065340 256 16510ft 345kts
13-Sep-21 07:03 34.769757 -112.156385 256 16500ft 363kts
13-Sep-21 07:04 34.745088 -112.275840 256 16500ft 365kts
13-Sep-21 07:05 34.720205 -112.395697 256 16500ft 366kts
13-Sep-21 07:06 34.704564 -112.517511 271 16499ft 366kts
13-Sep-21 07:07 34.708684 -112.635976 273 19188ft 297kts
13-Sep-21 07:08 34.712395 -112.732486 272 21514ft 297kts
13-Sep-21 07:09 34.716190 -112.833627 272 23373ft 305kts
13-Sep-21 07:10 34.720028 -112.938308 272 25027ft 314kts
13-Sep-21 07:11 34.723868 -113.045609 272 26515ft 322kts
13-Sep-21 07:12 34.727702 -113.155476 272 27852ft 330kts
13-Sep-21 07:13 34.731538 -113.268350 272 29065ft 338kts
13-Sep-21 07:14 34.735339 -113.383353 272 30161ft 344kts
13-Sep-21 07:15 34.739099 -113.500471 272 31155ft 351kts
13-Sep-21 07:16 34.742813 -113.619801 272 32059ft 357kts
13-Sep-21 07:17 34.746562 -113.744178 271 32214ft 382kts
13-Sep-21 07:18 34.750434 -113.877309 271 32213ft 405kts
13-Sep-21 07:19 34.754323 -114.016410 271 32212ft 421kts
13-Sep-21 07:20 34.758175 -114.160124 271 32210ft 425kts
13-Sep-21 07:21 34.761843 -114.303254 271 32210ft 423kts
13-Sep-21 07:22 34.765325 -114.445613 271 32210ft 421kts
13-Sep-21 07:23 34.768649 -114.587852 271 32210ft 421kts
13-Sep-21 07:24 34.771819 -114.730489 271 32210ft 420kts
13-Sep-21 07:25 34.774798 -114.871962 271 32210ft 420kts
13-Sep-21 07:26 34.777623 -115.013990 271 32210ft 419kts
13-Sep-21 07:27 34.780279 -115.155777 271 32210ft 419kts
13-Sep-21 07:28 34.782762 -115.297097 271 32210ft 419kts
13-Sep-21 07:29 34.785088 -115.438788 271 32210ft 419kts
13-Sep-21 07:30 34.787253 -115.580688 271 32210ft 419kts
13-Sep-21 07:31 34.789257 -115.722811 270 32210ft 420kts
13-Sep-21 07:32 34.791091 -115.864585 270 32210ft 420kts
13-Sep-21 07:33 34.792761 -116.006483 270 32210ft 420kts
13-Sep-21 07:34 34.794264 -116.148127 270 32210ft 420kts
13-Sep-21 07:35 34.795606 -116.290138 270 32210ft 420kts
13-Sep-21 07:36 34.796784 -116.432301 270 32210ft 420kts
13-Sep-21 07:37 34.786260 -116.573599 263 32209ft 419kts
13-Sep-21 07:38 34.772535 -116.713355 262 32209ft 414kts
13-Sep-21 07:39 34.758761 -116.851936 262 32210ft 412kts
13-Sep-21 07:40 34.744890 -116.989875 262 32210ft 410kts
13-Sep-21 07:41 34.730933 -117.127080 262 32210ft 409kts
13-Sep-21 07:42 34.716858 -117.263907 262 32210ft 408kts
13-Sep-21 07:43 34.702598 -117.400957 262 32210ft 408kts
13-Sep-21 07:44 34.693925 -117.483597 262 32026ft 412kts
13-Sep-21 07:45 34.679366 -117.621087 262 32017ft 409kts
13-Sep-21 07:46 34.664733 -117.757775 262 32018ft 407kts
13-Sep-21 07:47 34.650020 -117.893754 262 32018ft 406kts
13-Sep-21 07:48 34.636426 -118.029515 274 32000ft 405kts
13-Sep-21 07:49 34.689159 -118.147022 310 32019ft 403kts
13-Sep-21 07:50 34.761227 -118.251118 310 32018ft 404kts
13-Sep-21 07:51 34.833329 -118.355565 310 32018ft 404kts
13-Sep-21 07:52 34.905327 -118.460177 310 32018ft 404kts
13-Sep-21 07:53 34.977474 -118.565322 310 32018ft 404kts
13-Sep-21 07:54 35.041277 -118.677340 300 32018ft 404kts
13-Sep-21 07:55 35.097424 -118.795731 299 32018ft 404kts
13-Sep-21 07:56 35.153550 -118.914688 299 32018ft 405kts
13-Sep-21 07:57 35.209899 -119.034527 299 32018ft 406kts
13-Sep-21 07:58 35.266293 -119.154880 299 31591ft 411kts
13-Sep-21 07:59 35.323307 -119.276955 299 30600ft 415kts
13-Sep-21 08:00 35.380819 -119.399935 300 29605ft 417kts
13-Sep-21 08:01 35.437700 -119.523301 299 28611ft 417kts
13-Sep-21 08:02 35.495012 -119.647392 299 27611ft 417kts
13-Sep-21 08:03 35.552033 -119.771291 299 26480ft 418kts
13-Sep-21 08:04 35.607987 -119.893314 299 24967ft 402kts
13-Sep-21 08:05 35.647799 -120.017532 275 23470ft 390kts
13-Sep-21 08:06 35.653974 -120.147955 272 21962ft 376kts
13-Sep-21 08:07 35.659048 -120.274848 272 20454ft 367kts
13-Sep-21 08:08 35.663836 -120.397627 272 19850ft 351kts
13-Sep-21 08:09 35.668289 -120.514607 272 18840ft 331kts
13-Sep-21 08:10 35.679866 -120.623754 303 17845ft 329kts
13-Sep-21 08:11 35.748517 -120.700801 321 16872ft 340kts
13-Sep-21 08:12 35.823171 -120.773388 321 15878ft 344kts
13-Sep-21 08:13 35.898362 -120.846641 321 14879ft 344kts
13-Sep-21 08:14 35.973115 -120.919650 321 13883ft 343kts
13-Sep-21 08:15 36.047411 -120.992403 321 12883ft 339kts
13-Sep-21 08:16 36.120788 -121.064445 321 11882ft 336kts
13-Sep-21 08:17 36.193594 -121.136101 321 10881ft 333kts
13-Sep-21 08:18 36.265667 -121.207209 321 10015ft 327kts
13-Sep-21 08:19 36.333935 -121.274723 321 9996ft 301kts
13-Sep-21 08:20 36.396363 -121.336598 321 9997ft 277kts
13-Sep-21 08:21 36.455354 -121.395185 321 9999ft 267kts
13-Sep-21 08:22 36.513108 -121.452657 321 9776ft 272kts
13-Sep-21 08:23 36.574383 -121.513757 321 8795ft 290kts
13-Sep-21 08:24 36.635277 -121.574605 321 7356ft 262kts
13-Sep-21 08:25 36.671620 -121.645035 293 5848ft 237kts
13-Sep-21 08:26 36.696880 -121.717618 293 4997ft 215kts
13-Sep-21 08:27 36.719694 -121.783204 293 4999ft 202kts
13-Sep-21 08:28 36.741579 -121.846092 293 4999ft 195kts
13-Sep-21 08:29 36.763082 -121.907860 293 4999ft 193kts
13-Sep-21 08:30 36.784416 -121.969092 293 4999ft 192kts
13-Sep-21 08:31 36.805689 -122.030153 293 4999ft 191kts
13-Sep-21 08:32 36.784288 -122.078991 203 4331ft 186kts
13-Sep-21 08:34 36.740428 -122.101843 202 3087ft 168kts
13-Sep-21 08:35 36.705118 -122.083483 143 3002ft 144kts
13-Sep-21 08:36 36.672418 -122.053330 143 2999ft 146kts
13-Sep-21 08:37 36.645724 -122.018333 113 2885ft 140kts
13-Sep-21 08:38 36.630522 -121.973379 112 2187ft 139kts
13-Sep-21 08:39 36.615850 -121.929812 112 1447ft 134kts
13-Sep-21 08:40 36.601975 -121.888682 112 747ft 123kts
13-Sep-21 08:41 36.589401 -121.851347 111 170ft 102kts
13-Sep-21 08:42 36.585345 -121.841202 210 233ft 0kts
13-Sep-21 08:43 36.585591 -121.843125 293 222ft 17kts
13-Sep-21 08:44 36.587257 -121.847647 293 190ft 15kts
13-Sep-21 08:45 36.587785 -121.850205 231 182ft 2kts
13-Sep-21 08:46 36.587606 -121.850486 231 183ft 0kts
13-Sep-21 08:47 36.587606 -121.850486 231 183ft 0kts

Navigation Log

Ident Type
Flight plan parsing failed, navigation log unavailable